createdAt,value
2022-07-25T00:00:09.681Z,8.40
2022-07-25T00:01:12.711Z,8.60
2022-07-25T00:02:14.744Z,8.70
2022-07-25T00:03:11.183Z,8.50
2022-07-25T00:04:12.238Z,9.10
2022-07-25T00:05:09.902Z,9.10
2022-07-25T00:06:13.337Z,9.50
2022-07-25T00:07:18.828Z,9.00
2022-07-25T00:08:12.170Z,9.40
2022-07-25T00:09:09.909Z,9.50
2022-07-25T00:10:09.659Z,9.10
2022-07-25T00:11:14.184Z,8.80
2022-07-25T00:12:12.347Z,8.60
2022-07-25T00:13:11.164Z,9.00
2022-07-25T00:14:10.231Z,8.50
2022-07-25T00:15:12.165Z,8.70
2022-07-25T00:17:46.641Z,8.70
2022-07-25T00:18:46.182Z,9.10
2022-07-25T00:19:46.841Z,9.70
2022-07-25T00:20:47.218Z,8.30
2022-07-25T00:21:48.186Z,8.70
2022-07-25T00:22:46.265Z,9.50
2022-07-25T00:23:48.724Z,9.50
2022-07-25T00:24:50.174Z,9.70
2022-07-25T00:25:46.329Z,8.70
2022-07-25T00:26:48.826Z,8.50
2022-07-25T00:27:47.705Z,9.40
2022-07-25T00:28:46.687Z,9.30
2022-07-25T00:29:48.715Z,9.00
2022-07-25T00:30:47.317Z,9.30
2022-07-25T00:31:47.790Z,9.10
2022-07-25T00:32:46.709Z,9.10
2022-07-25T00:33:47.206Z,9.30
2022-07-25T00:34:49.709Z,9.60
2022-07-25T00:35:45.517Z,9.30
2022-07-25T00:36:46.869Z,9.40
2022-07-25T00:37:48.198Z,9.50
2022-07-25T00:38:46.324Z,9.30
2022-07-25T00:39:48.342Z,9.50
2022-07-25T00:40:45.986Z,9.40
2022-07-25T00:43:23.750Z,8.60
2022-07-25T00:44:25.178Z,9.40
2022-07-25T00:45:25.652Z,9.30
2022-07-25T00:48:14.910Z,9.30
2022-07-25T00:49:14.616Z,9.00
2022-07-25T00:50:14.704Z,9.50
2022-07-25T00:51:13.664Z,9.10
2022-07-25T00:52:15.436Z,8.80
2022-07-25T00:53:22.919Z,9.20
2022-07-25T00:54:17.309Z,9.30
2022-07-25T00:55:15.509Z,9.00
2022-07-25T00:56:16.413Z,9.10
2022-07-25T00:57:21.978Z,9.70
2022-07-25T00:58:15.402Z,8.70
2022-07-25T01:00:44.105Z,8.70
2022-07-25T01:01:46.872Z,8.80
2022-07-25T01:02:43.104Z,9.20
2022-07-25T01:04:08.159Z,9.20
2022-07-25T01:04:47.212Z,9.70
2022-07-25T01:05:47.956Z,9.10
2022-07-25T01:06:44.742Z,9.50
2022-07-25T01:07:44.691Z,9.20
2022-07-25T01:10:55.425Z,10.70
2022-07-25T01:11:49.870Z,10.00
2022-07-25T01:12:47.626Z,9.30
2022-07-25T01:13:46.403Z,10.00
2022-07-25T01:14:46.866Z,9.90
2022-07-25T01:15:46.092Z,9.60
2022-07-25T01:16:46.134Z,9.70
2022-07-25T01:17:48.869Z,10.00
2022-07-25T01:18:49.865Z,10.50
2022-07-25T01:19:46.917Z,9.70
2022-07-25T01:21:08.397Z,10.30
2022-07-25T01:21:46.887Z,9.90
2022-07-25T01:23:07.974Z,9.60
2022-07-25T01:23:56.915Z,9.40
2022-07-25T01:24:56.372Z,9.30
2022-07-25T01:26:00.924Z,9.90
2022-07-25T01:26:53.042Z,10.10
2022-07-25T01:27:55.853Z,9.70
2022-07-25T01:28:48.496Z,9.60
2022-07-25T01:29:49.888Z,9.50
2022-07-25T01:30:47.545Z,10.10
2022-07-25T01:31:46.127Z,9.80
2022-07-25T01:32:46.976Z,9.90
2022-07-25T01:33:47.161Z,10.30
2022-07-25T01:34:52.577Z,9.70
2022-07-25T01:35:49.877Z,10.00
2022-07-25T01:36:46.199Z,10.30
2022-07-25T01:37:49.397Z,9.70
2022-07-25T01:38:46.023Z,9.90
2022-07-25T01:39:47.030Z,10.70
2022-07-25T01:40:54.401Z,9.80
2022-07-25T01:41:46.701Z,10.30
2022-07-25T01:42:57.068Z,10.40
2022-07-25T01:44:08.747Z,10.30
2022-07-25T01:44:48.477Z,10.10
2022-07-25T01:45:46.998Z,9.80
2022-07-25T01:47:03.444Z,9.80
2022-07-25T01:47:49.110Z,9.80
2022-07-25T01:48:52.613Z,10.40
2022-07-25T01:49:49.584Z,10.50
2022-07-25T01:50:46.476Z,9.70
2022-07-25T01:51:46.003Z,10.50
2022-07-25T01:52:47.390Z,10.10
2022-07-25T01:53:51.384Z,10.30
2022-07-25T01:54:48.931Z,10.30
2022-07-25T01:55:48.418Z,9.80
2022-07-25T01:56:48.342Z,10.00
2022-07-25T01:57:49.809Z,10.00
2022-07-25T01:58:46.940Z,10.80
2022-07-25T01:59:47.880Z,10.10
2022-07-25T02:00:48.938Z,10.40
2022-07-25T02:01:45.965Z,10.80
2022-07-25T02:02:51.395Z,10.20
2022-07-25T02:03:47.891Z,10.20
2022-07-25T02:04:48.556Z,10.90
2022-07-25T02:05:50.042Z,10.30
2022-07-25T02:06:45.888Z,10.20
2022-07-25T02:07:46.922Z,11.00
2022-07-25T02:08:44.990Z,10.70
2022-07-25T02:09:52.110Z,10.40
2022-07-25T02:10:48.882Z,10.80
2022-07-25T02:11:52.381Z,11.10
2022-07-25T02:12:46.388Z,10.70
2022-07-25T02:13:45.885Z,11.00
2022-07-25T02:14:47.149Z,10.40
2022-07-25T02:15:46.891Z,11.00
2022-07-25T02:16:47.546Z,11.70
2022-07-25T02:17:47.887Z,11.10
2022-07-25T02:18:45.626Z,11.20
2022-07-25T02:20:16.395Z,11.20
2022-07-25T02:20:46.451Z,11.30
2022-07-25T02:23:18.342Z,11.10
2022-07-25T02:24:19.404Z,10.80
2022-07-25T02:25:16.631Z,10.60
2022-07-25T02:26:42.339Z,10.90
2022-07-25T02:27:17.659Z,10.90
2022-07-25T02:28:16.611Z,10.50
2022-07-25T02:29:17.634Z,11.20
2022-07-25T02:30:19.771Z,11.00
2022-07-25T02:31:35.209Z,11.20
2022-07-25T02:32:18.229Z,10.50
2022-07-25T02:33:19.513Z,11.50
2022-07-25T02:34:17.856Z,11.00
2022-07-25T02:35:19.800Z,10.70
2022-07-25T02:36:17.363Z,10.50
2022-07-25T02:37:18.235Z,10.80
2022-07-25T02:38:18.293Z,11.10
2022-07-25T02:39:18.236Z,10.30
2022-07-25T02:40:20.823Z,10.60
2022-07-25T02:41:19.912Z,10.90
2022-07-25T02:42:20.277Z,10.90
2022-07-25T02:43:23.150Z,11.10
2022-07-25T02:44:17.848Z,10.30
2022-07-25T02:45:18.313Z,10.60
2022-07-25T02:46:18.471Z,11.10
2022-07-25T02:47:17.252Z,10.70
2022-07-25T02:48:17.761Z,10.90
2022-07-25T02:49:18.840Z,10.30
2022-07-25T02:50:17.257Z,10.30
2022-07-25T02:51:19.859Z,10.20
2022-07-25T02:52:18.759Z,10.90
2022-07-25T02:53:33.931Z,11.20
2022-07-25T02:54:18.232Z,12.00
2022-07-25T02:55:18.841Z,10.90
2022-07-25T02:56:18.256Z,11.30
2022-07-25T02:57:17.046Z,11.20
2022-07-25T02:58:17.743Z,11.70
2022-07-25T02:59:17.790Z,11.80
2022-07-25T03:00:21.934Z,12.20
2022-07-25T03:01:17.835Z,12.00
2022-07-25T03:02:17.234Z,11.80
2022-07-25T03:03:16.753Z,11.60
2022-07-25T03:04:19.826Z,11.70
2022-07-25T03:05:17.412Z,12.40
2022-07-25T03:06:18.498Z,12.20
2022-07-25T03:07:18.962Z,11.70
2022-07-25T03:08:22.246Z,12.90
2022-07-25T03:09:16.765Z,12.40
2022-07-25T03:10:17.253Z,12.80
2022-07-25T03:11:22.874Z,12.80
2022-07-25T03:12:17.309Z,13.30
2022-07-25T03:13:19.773Z,12.30
2022-07-25T03:14:20.211Z,13.00
2022-07-25T03:15:19.238Z,12.60
2022-07-25T03:16:17.330Z,12.80
2022-07-25T03:17:17.525Z,12.80
2022-07-25T03:18:17.850Z,12.80
2022-07-25T03:19:17.862Z,12.60
2022-07-25T03:20:17.738Z,13.60
2022-07-25T03:21:18.777Z,13.10
2022-07-25T03:22:16.808Z,12.80
2022-07-25T03:23:32.825Z,13.40
2022-07-25T03:24:20.810Z,13.10
2022-07-25T03:25:21.844Z,13.40
2022-07-25T03:26:17.789Z,14.00
2022-07-25T03:27:18.268Z,12.80
2022-07-25T03:28:21.277Z,12.90
2022-07-25T03:29:17.473Z,14.10
2022-07-25T03:30:17.285Z,12.60
2022-07-25T03:31:17.779Z,12.90
2022-07-25T03:32:16.883Z,12.30
2022-07-25T03:33:16.654Z,12.30
2022-07-25T03:34:18.839Z,12.50
2022-07-25T03:35:16.754Z,13.40
2022-07-25T03:36:16.792Z,13.30
2022-07-25T03:37:24.080Z,13.30
2022-07-25T03:38:19.789Z,12.60
2022-07-25T03:39:17.108Z,12.80
2022-07-25T03:40:16.746Z,13.10
2022-07-25T03:41:19.330Z,12.90
2022-07-25T03:42:16.791Z,12.50
2022-07-25T03:43:16.811Z,13.40
2022-07-25T03:44:17.118Z,13.20
2022-07-25T03:45:22.298Z,12.80
2022-07-25T03:46:19.471Z,13.00
2022-07-25T03:47:20.585Z,13.10
2022-07-25T03:48:17.783Z,12.20
2022-07-25T03:49:16.772Z,12.90
2022-07-25T03:50:31.291Z,12.30
2022-07-25T03:51:17.366Z,13.70
2022-07-25T03:52:20.274Z,13.50
2022-07-25T03:53:20.787Z,13.20
2022-07-25T03:54:19.024Z,13.10
2022-07-25T03:55:19.008Z,13.40
2022-07-25T03:56:15.773Z,13.50
2022-07-25T03:57:17.258Z,13.70
2022-07-25T03:58:17.867Z,13.00
2022-07-25T03:59:18.297Z,13.00
2022-07-25T04:00:17.750Z,13.30
2022-07-25T04:01:18.351Z,13.30
2022-07-25T04:02:17.844Z,12.10
2022-07-25T04:03:16.353Z,13.10
2022-07-25T04:04:17.292Z,13.00
2022-07-25T04:05:17.273Z,14.10
2022-07-25T04:06:17.770Z,12.50
2022-07-25T04:07:17.012Z,13.90
2022-07-25T04:08:17.892Z,12.60
2022-07-25T04:09:17.846Z,12.90
2022-07-25T04:10:18.260Z,12.80
2022-07-25T04:11:17.602Z,13.10
2022-07-25T04:12:16.753Z,12.00
2022-07-25T04:14:46.502Z,12.80
2022-07-25T04:15:45.546Z,12.60
2022-07-25T04:16:45.451Z,12.40
2022-07-25T04:17:48.057Z,12.60
2022-07-25T04:18:45.428Z,12.70
2022-07-25T04:19:48.503Z,12.10
2022-07-25T04:20:50.564Z,12.10
2022-07-25T04:21:49.008Z,12.50
2022-07-25T04:23:01.427Z,12.40
2022-07-25T04:23:47.844Z,12.60
2022-07-25T04:24:47.081Z,12.80
2022-07-25T04:25:47.125Z,12.80
2022-07-25T04:26:46.121Z,12.70
2022-07-25T04:27:46.503Z,12.10
2022-07-25T04:28:45.939Z,12.40
2022-07-25T04:29:48.565Z,12.60
2022-07-25T04:30:50.768Z,12.30
2022-07-25T04:31:47.224Z,12.10
2022-07-25T04:32:48.160Z,13.10
2022-07-25T04:33:46.059Z,12.50
2022-07-25T04:34:49.182Z,12.50
2022-07-25T04:35:46.860Z,12.80
2022-07-25T04:36:48.508Z,12.20
2022-07-25T04:37:47.013Z,12.40
2022-07-25T04:38:47.431Z,12.90
2022-07-25T04:39:49.679Z,12.20
2022-07-25T04:40:49.446Z,12.90
2022-07-25T04:41:46.472Z,13.40
2022-07-25T04:42:47.202Z,12.20
2022-07-25T04:43:49.150Z,12.40
2022-07-25T04:44:48.017Z,12.60
2022-07-25T04:45:55.630Z,12.70
2022-07-25T04:46:46.011Z,12.50
2022-07-25T04:47:47.237Z,12.80
2022-07-25T04:48:46.835Z,13.40
2022-07-25T04:49:48.036Z,12.40
2022-07-25T04:50:47.769Z,13.50
2022-07-25T04:51:48.015Z,12.60
2022-07-25T04:52:45.050Z,12.80
2022-07-25T04:53:45.572Z,12.00
2022-07-25T04:54:44.963Z,12.60
2022-07-25T04:55:44.967Z,12.70
2022-07-25T04:56:44.957Z,12.40
2022-07-25T04:57:44.973Z,12.00
2022-07-25T04:58:44.964Z,13.40
2022-07-25T04:59:44.962Z,12.70
2022-07-25T05:00:44.966Z,12.40
2022-07-25T05:01:44.979Z,12.60
2022-07-25T05:02:44.983Z,12.50
2022-07-25T05:03:50.067Z,12.80
2022-07-25T05:04:45.906Z,12.90
2022-07-25T05:05:45.874Z,13.30
2022-07-25T05:06:44.874Z,12.40
2022-07-25T05:07:44.875Z,13.10
2022-07-25T05:08:44.873Z,12.40
2022-07-25T05:09:44.865Z,11.80
2022-07-25T05:10:44.832Z,13.10
2022-07-25T05:11:48.595Z,12.20
2022-07-25T05:12:45.825Z,12.10
2022-07-25T05:13:44.812Z,12.80
2022-07-25T05:14:44.842Z,12.80
2022-07-25T05:15:44.797Z,12.80
2022-07-25T05:16:44.849Z,12.60
2022-07-25T05:17:44.792Z,13.20
2022-07-25T05:18:44.774Z,12.90
2022-07-25T05:19:44.769Z,12.70
2022-07-25T05:20:44.789Z,12.20
2022-07-25T05:21:44.752Z,12.30
2022-07-25T05:22:44.733Z,13.70
2022-07-25T05:23:44.733Z,12.80
2022-07-25T05:24:44.719Z,12.60
2022-07-25T05:25:44.717Z,12.30
2022-07-25T05:26:44.726Z,12.90
2022-07-25T05:27:44.708Z,13.20
2022-07-25T05:28:44.709Z,13.40
2022-07-25T05:29:44.690Z,12.70
2022-07-25T05:30:44.695Z,13.50
2022-07-25T05:31:44.782Z,12.80
2022-07-25T05:32:44.664Z,12.70
2022-07-25T05:33:44.668Z,12.80
2022-07-25T05:34:44.677Z,12.80
2022-07-25T05:35:44.634Z,13.00
2022-07-25T05:36:47.343Z,12.40
2022-07-25T05:37:44.635Z,12.20
2022-07-25T05:38:44.627Z,12.00
2022-07-25T05:39:44.653Z,11.50
2022-07-25T05:40:44.590Z,12.30
2022-07-25T05:41:44.585Z,12.40
2022-07-25T05:42:44.588Z,12.40
2022-07-25T05:43:44.619Z,12.30
2022-07-25T05:44:44.688Z,12.50
2022-07-25T05:45:44.556Z,12.20
2022-07-25T05:46:44.618Z,12.20
2022-07-25T05:47:44.550Z,12.50
2022-07-25T05:48:44.665Z,12.30
2022-07-25T05:49:44.570Z,12.40
2022-07-25T05:50:44.517Z,11.90
2022-07-25T05:51:44.520Z,13.10
2022-07-25T05:52:44.493Z,12.40
2022-07-25T05:53:44.497Z,11.90
2022-07-25T05:54:44.473Z,12.30
2022-07-25T05:55:44.495Z,12.00
2022-07-25T05:56:44.490Z,12.10
2022-07-25T05:57:44.459Z,11.70
2022-07-25T05:58:44.450Z,11.90
2022-07-25T05:59:44.529Z,11.30
2022-07-25T06:00:44.579Z,12.00
2022-07-25T06:01:44.494Z,11.70
2022-07-25T06:02:44.549Z,12.60
2022-07-25T06:03:44.427Z,13.30
2022-07-25T06:04:44.416Z,12.30
2022-07-25T06:05:44.401Z,13.10
2022-07-25T06:06:44.421Z,12.90
2022-07-25T06:07:44.398Z,13.20
2022-07-25T06:08:44.644Z,13.90
2022-07-25T06:09:44.375Z,13.80
2022-07-25T06:10:44.354Z,12.90
2022-07-25T06:11:54.552Z,13.30
2022-07-25T06:12:45.350Z,13.10
2022-07-25T06:13:44.332Z,13.40
2022-07-25T06:14:44.347Z,13.10
2022-07-25T06:15:44.307Z,12.50
2022-07-25T06:16:44.322Z,12.50
2022-07-25T06:17:44.299Z,12.80
2022-07-25T06:18:44.299Z,12.20
2022-07-25T06:19:44.283Z,12.40
2022-07-25T06:20:44.297Z,12.50
2022-07-25T06:21:44.261Z,12.60
2022-07-25T06:22:44.262Z,12.30
2022-07-25T06:23:44.255Z,11.90
2022-07-25T06:24:44.261Z,11.80
2022-07-25T06:25:50.261Z,11.60
2022-07-25T06:26:45.241Z,11.80
2022-07-25T06:27:44.308Z,11.40
2022-07-25T06:28:44.247Z,11.20
2022-07-25T06:29:44.204Z,11.40
2022-07-25T06:30:44.218Z,11.70
2022-07-25T06:31:46.390Z,11.00
2022-07-25T06:32:44.182Z,10.90
2022-07-25T06:33:44.162Z,11.20
2022-07-25T06:34:44.195Z,11.30
2022-07-25T06:35:45.111Z,10.90
2022-07-25T06:36:44.189Z,11.00
2022-07-25T06:37:44.172Z,11.70
2022-07-25T06:38:44.134Z,11.40
2022-07-25T06:39:46.110Z,10.70
2022-07-25T06:40:44.134Z,10.60
2022-07-25T06:41:44.111Z,10.40
2022-07-25T06:42:44.107Z,10.50
2022-07-25T06:43:44.111Z,10.40
2022-07-25T06:44:44.102Z,10.80
2022-07-25T06:45:44.101Z,9.90
2022-07-25T06:46:44.133Z,10.40
2022-07-25T06:47:44.168Z,10.00
2022-07-25T06:48:44.146Z,10.30
2022-07-25T06:49:44.065Z,9.80
2022-07-25T06:50:44.046Z,10.00
2022-07-25T06:51:44.037Z,9.90
2022-07-25T06:52:44.033Z,10.20
2022-07-25T06:53:44.032Z,10.30
2022-07-25T06:54:44.005Z,10.00
2022-07-25T06:55:44.056Z,10.50
2022-07-25T06:56:44.005Z,10.30
2022-07-25T06:57:43.985Z,10.10
2022-07-25T06:58:44.008Z,10.80
2022-07-25T06:59:43.970Z,10.20
2022-07-25T07:00:44.041Z,10.40
2022-07-25T07:01:47.063Z,9.40
2022-07-25T07:02:45.002Z,10.10
2022-07-25T07:03:43.989Z,9.60
2022-07-25T07:04:44.037Z,10.00
2022-07-25T07:05:43.948Z,10.00
2022-07-25T07:06:43.946Z,10.80
2022-07-25T07:07:47.645Z,9.80
2022-07-25T07:08:43.908Z,10.20
2022-07-25T07:09:43.922Z,9.50
2022-07-25T07:10:43.894Z,9.70
2022-07-25T07:11:43.876Z,9.60
2022-07-25T07:12:43.868Z,9.40
2022-07-25T07:13:43.868Z,9.90
2022-07-25T07:14:43.851Z,9.50
2022-07-25T07:15:43.930Z,9.60
2022-07-25T07:16:43.879Z,9.50
2022-07-25T07:17:43.834Z,9.80
2022-07-25T07:18:48.811Z,10.20
2022-07-25T07:19:44.827Z,9.70
2022-07-25T07:20:43.822Z,9.70
2022-07-25T07:21:43.826Z,9.40
2022-07-25T07:22:43.874Z,9.70
2022-07-25T07:23:43.785Z,9.60
2022-07-25T07:24:44.151Z,9.50
2022-07-25T07:25:43.765Z,9.70
2022-07-25T07:26:43.789Z,10.20
2022-07-25T07:27:43.760Z,9.60
2022-07-25T07:28:43.757Z,10.20
2022-07-25T07:29:43.746Z,9.30
2022-07-25T07:31:14.410Z,9.40
2022-07-25T07:31:44.849Z,9.60
2022-07-25T07:32:43.729Z,9.80
2022-07-25T07:33:43.717Z,9.00
2022-07-25T07:34:43.744Z,10.00
2022-07-25T07:35:43.696Z,9.10
2022-07-25T07:36:43.768Z,9.10
2022-07-25T07:37:43.921Z,9.30
2022-07-25T07:38:43.682Z,9.10
2022-07-25T07:39:43.692Z,10.10
2022-07-25T07:40:43.690Z,9.40
2022-07-25T07:41:43.654Z,9.30
2022-07-25T07:42:43.668Z,9.50
2022-07-25T07:43:43.682Z,8.90
2022-07-25T07:44:43.631Z,9.30
2022-07-25T07:45:43.634Z,8.80
2022-07-25T07:46:43.688Z,8.70
2022-07-25T07:47:43.601Z,9.30
2022-07-25T07:48:43.688Z,9.90
2022-07-25T07:49:48.390Z,9.40
2022-07-25T07:50:44.594Z,9.30
2022-07-25T07:51:43.616Z,9.80
2022-07-25T07:52:43.570Z,9.40
2022-07-25T07:53:43.693Z,9.10
2022-07-25T07:54:45.800Z,9.30
2022-07-25T07:55:43.553Z,9.40
2022-07-25T07:56:43.546Z,9.60
2022-07-25T07:57:43.551Z,9.80
2022-07-25T07:58:43.648Z,9.40
2022-07-25T08:00:55.622Z,9.10
2022-07-25T08:01:55.575Z,9.10
2022-07-25T08:02:55.611Z,9.30
2022-07-25T08:03:55.515Z,9.10
2022-07-25T08:04:55.505Z,8.80
2022-07-25T08:05:55.499Z,9.30
2022-07-25T08:06:55.494Z,9.20
2022-07-25T08:07:55.502Z,9.10
2022-07-25T08:08:55.506Z,9.30
2022-07-25T08:09:55.494Z,9.30
2022-07-25T08:10:58.697Z,9.10
2022-07-25T08:11:55.454Z,9.00
2022-07-25T08:12:55.439Z,9.00
2022-07-25T08:13:55.477Z,9.90
2022-07-25T08:14:55.599Z,8.80
2022-07-25T08:15:56.038Z,9.50
2022-07-25T08:16:55.669Z,8.70
2022-07-25T08:17:55.404Z,9.40
2022-07-25T08:18:55.408Z,9.50
2022-07-25T08:19:55.384Z,9.00
2022-07-25T08:20:56.295Z,9.60
2022-07-25T08:21:55.371Z,9.30
2022-07-25T08:22:56.646Z,9.20
2022-07-25T08:23:55.495Z,9.20
2022-07-25T08:24:55.378Z,9.00
2022-07-25T08:25:55.346Z,9.20
2022-07-25T08:26:55.341Z,9.60
2022-07-25T08:27:55.335Z,9.70
2022-07-25T08:29:17.140Z,9.10
2022-07-25T08:29:56.339Z,9.60
2022-07-25T08:30:56.358Z,9.10
2022-07-25T08:31:55.297Z,9.20
2022-07-25T08:32:55.282Z,9.60
2022-07-25T08:33:55.843Z,8.90
2022-07-25T08:34:55.275Z,9.30
2022-07-25T08:35:55.290Z,9.50
2022-07-25T08:36:55.658Z,9.20
2022-07-25T08:37:55.249Z,9.40
2022-07-25T08:38:55.250Z,9.50
2022-07-25T08:39:55.242Z,9.50
2022-07-25T08:40:56.116Z,9.30
2022-07-25T08:41:55.257Z,9.10
2022-07-25T08:42:55.869Z,9.10
2022-07-25T08:43:55.456Z,9.30
2022-07-25T08:44:55.237Z,9.00
2022-07-25T08:45:56.413Z,9.30
2022-07-25T08:46:56.162Z,9.40
2022-07-25T08:47:55.200Z,9.00
2022-07-25T08:48:55.424Z,9.80
2022-07-25T08:49:55.206Z,9.10
2022-07-25T08:50:55.151Z,9.00
2022-07-25T08:51:55.287Z,9.40
2022-07-25T08:53:10.319Z,9.10
2022-07-25T08:53:56.180Z,9.50
2022-07-25T08:54:55.134Z,9.00
2022-07-25T08:55:55.178Z,9.40
2022-07-25T08:56:55.102Z,8.90
2022-07-25T08:57:55.117Z,9.00
2022-07-25T08:58:55.123Z,9.40
2022-07-25T08:59:55.105Z,9.20
2022-07-25T09:00:55.210Z,9.30
2022-07-25T09:01:56.444Z,9.40
2022-07-25T09:02:55.126Z,9.00
2022-07-25T09:03:55.195Z,9.00
2022-07-25T09:04:55.214Z,9.00
2022-07-25T09:05:55.076Z,9.10
2022-07-25T09:06:55.445Z,9.10
2022-07-25T09:07:55.029Z,9.10
2022-07-25T09:08:55.017Z,9.00
2022-07-25T09:09:55.061Z,9.50
2022-07-25T09:10:54.994Z,9.40
2022-07-25T09:11:54.989Z,8.90
2022-07-25T09:12:55.006Z,9.10
2022-07-25T09:13:55.077Z,8.60
2022-07-25T09:14:54.981Z,8.70
2022-07-25T09:15:55.013Z,9.30
2022-07-25T09:16:55.563Z,9.10
2022-07-25T09:17:54.927Z,9.20
2022-07-25T09:18:54.914Z,9.10
2022-07-25T09:19:54.905Z,8.70
2022-07-25T09:20:54.956Z,8.60
2022-07-25T09:21:55.152Z,8.20
2022-07-25T09:22:54.930Z,8.70
2022-07-25T09:23:55.018Z,8.50
2022-07-25T09:24:54.909Z,8.80
2022-07-25T09:25:54.905Z,8.30
2022-07-25T09:26:54.879Z,8.90
2022-07-25T09:27:54.859Z,8.60
2022-07-25T09:28:54.861Z,9.10
2022-07-25T09:29:54.868Z,8.40
2022-07-25T09:30:55.491Z,8.80
2022-07-25T09:31:54.819Z,8.40
2022-07-25T09:32:55.076Z,8.50
2022-07-25T09:33:54.809Z,8.30
2022-07-25T09:34:54.801Z,8.40
2022-07-25T09:35:54.815Z,8.10
2022-07-25T09:36:54.782Z,8.50
2022-07-25T09:37:54.772Z,8.60
2022-07-25T09:38:54.776Z,8.60
2022-07-25T09:39:55.422Z,8.30
2022-07-25T09:40:54.769Z,8.00
2022-07-25T09:41:54.738Z,8.70
2022-07-25T09:42:56.291Z,8.50
2022-07-25T09:43:54.729Z,8.00
2022-07-25T09:44:54.864Z,8.10
2022-07-25T09:45:54.903Z,7.90
2022-07-25T09:46:54.881Z,7.60
2022-07-25T09:47:54.879Z,7.60
2022-07-25T09:48:54.760Z,7.50
2022-07-25T09:49:54.817Z,7.30
2022-07-25T09:50:54.913Z,7.10
2022-07-25T09:51:54.673Z,7.10
2022-07-25T09:52:55.156Z,6.70
2022-07-25T09:53:54.953Z,7.00
2022-07-25T09:54:54.660Z,6.70
2022-07-25T09:55:54.752Z,7.10
2022-07-25T09:56:54.817Z,6.60
2022-07-25T09:57:54.624Z,7.10
2022-07-25T09:58:54.640Z,7.30
2022-07-25T09:59:54.858Z,7.20
2022-07-25T10:00:54.730Z,7.30
2022-07-25T10:01:55.025Z,7.30
2022-07-25T10:02:54.957Z,6.40
2022-07-25T10:03:54.588Z,5.80
2022-07-25T10:04:54.579Z,5.80
2022-07-25T10:05:54.951Z,5.70
2022-07-25T10:06:54.692Z,5.40
2022-07-25T10:07:54.599Z,5.70
2022-07-25T10:08:55.459Z,6.00
2022-07-25T10:09:54.797Z,6.30
2022-07-25T10:10:54.540Z,5.90
2022-07-25T10:11:54.522Z,6.10
2022-07-25T10:12:54.717Z,6.00
2022-07-25T10:13:54.574Z,6.40
2022-07-25T10:14:54.939Z,6.50
2022-07-25T10:15:54.487Z,6.40
2022-07-25T10:16:54.507Z,6.80
2022-07-25T10:17:54.473Z,7.00
2022-07-25T10:18:54.465Z,7.20
2022-07-25T10:19:58.683Z,6.60
2022-07-25T10:20:54.466Z,6.70
2022-07-25T10:21:54.456Z,6.80
2022-07-25T10:22:56.697Z,6.90
2022-07-25T10:23:54.447Z,6.20
2022-07-25T10:24:54.432Z,6.40
2022-07-25T10:25:54.444Z,6.20
2022-07-25T10:26:54.410Z,6.00
2022-07-25T10:27:54.470Z,5.90
2022-07-25T10:28:54.449Z,6.10
2022-07-25T10:29:54.386Z,5.90
2022-07-25T10:30:54.433Z,5.70
2022-07-25T10:31:54.377Z,6.10
2022-07-25T10:32:54.519Z,6.10
2022-07-25T10:33:54.395Z,6.20
2022-07-25T10:34:54.380Z,6.00
2022-07-25T10:35:54.426Z,6.30
2022-07-25T10:36:55.911Z,5.60
2022-07-25T10:37:56.408Z,6.20
2022-07-25T10:39:00.398Z,5.90
2022-07-25T10:39:55.357Z,6.20
2022-07-25T10:40:54.325Z,6.30
2022-07-25T10:41:54.366Z,5.80
2022-07-25T10:42:54.301Z,5.90
2022-07-25T10:43:54.338Z,5.70
2022-07-25T10:44:54.517Z,5.50
2022-07-25T10:45:54.305Z,5.90
2022-07-25T10:46:54.269Z,5.70
2022-07-25T10:47:54.267Z,5.90
2022-07-25T10:48:54.281Z,5.90
2022-07-25T10:50:14.424Z,5.60
2022-07-25T10:50:56.561Z,6.20
2022-07-25T10:51:54.249Z,5.50
2022-07-25T10:52:54.280Z,5.90
2022-07-25T10:53:54.215Z,5.90
2022-07-25T10:54:54.213Z,6.40
2022-07-25T10:56:05.361Z,6.50
2022-07-25T10:56:55.225Z,6.10
2022-07-25T10:58:16.173Z,6.40
2022-07-25T10:58:55.237Z,5.80
2022-07-25T10:59:54.194Z,6.10
2022-07-25T11:00:54.238Z,6.20
2022-07-25T11:01:54.314Z,6.40
2022-07-25T11:02:54.217Z,6.10
2022-07-25T11:03:54.223Z,6.10
2022-07-25T11:04:54.198Z,5.80
2022-07-25T11:05:54.929Z,5.90
2022-07-25T11:06:54.131Z,5.90
2022-07-25T11:08:20.095Z,6.00
2022-07-25T11:08:55.115Z,5.80
2022-07-25T11:09:54.099Z,5.90
2022-07-25T11:10:54.117Z,6.00
2022-07-25T11:11:54.098Z,6.00
2022-07-25T11:12:54.072Z,5.80
2022-07-25T11:13:54.106Z,5.90
2022-07-25T11:14:54.067Z,6.30
2022-07-25T11:15:54.073Z,6.00
2022-07-25T11:16:54.121Z,5.60
2022-07-25T11:17:54.044Z,5.60
2022-07-25T11:18:54.039Z,5.60
2022-07-25T11:19:54.107Z,5.40
2022-07-25T11:20:54.066Z,6.10
2022-07-25T11:21:54.025Z,5.90
2022-07-25T11:22:54.000Z,5.70
2022-07-25T11:23:53.995Z,5.90
2022-07-25T11:24:53.987Z,5.80
2022-07-25T11:25:54.027Z,5.80
2022-07-25T11:26:53.976Z,5.80
2022-07-25T11:27:53.965Z,5.80
2022-07-25T11:28:53.980Z,5.70
2022-07-25T11:29:53.944Z,5.50
2022-07-25T11:30:53.955Z,5.70
2022-07-25T11:31:54.007Z,5.40
2022-07-25T11:32:53.936Z,5.50
2022-07-25T11:33:53.930Z,5.20
2022-07-25T11:34:54.019Z,5.30
2022-07-25T11:35:53.921Z,5.30
2022-07-25T11:36:53.910Z,5.90
2022-07-25T11:37:54.029Z,6.00
2022-07-25T11:38:53.887Z,5.80
2022-07-25T11:39:54.360Z,7.10
2022-07-25T11:40:53.875Z,5.70
2022-07-25T11:41:53.859Z,6.20
2022-07-25T11:42:53.854Z,5.70
2022-07-25T11:43:53.875Z,5.50
2022-07-25T11:44:53.858Z,5.90
2022-07-25T11:45:53.934Z,5.30
2022-07-25T11:46:53.842Z,5.70
2022-07-25T11:47:53.813Z,5.70
2022-07-25T11:48:53.858Z,5.20
2022-07-25T11:49:53.813Z,5.70
2022-07-25T11:50:53.817Z,5.70
2022-07-25T11:51:53.795Z,5.70
2022-07-25T11:52:53.787Z,6.40
2022-07-25T11:53:53.768Z,6.40
2022-07-25T11:54:53.764Z,6.80
2022-07-25T11:55:53.827Z,5.70
2022-07-25T11:56:53.750Z,6.20
2022-07-25T11:57:53.743Z,5.70
2022-07-25T11:58:53.754Z,5.60
2022-07-25T11:59:53.725Z,5.90
2022-07-25T12:00:53.735Z,5.90
2022-07-25T12:01:53.786Z,5.90
2022-07-25T12:02:53.811Z,5.90
2022-07-25T12:03:53.787Z,5.80
2022-07-25T12:04:53.717Z,5.80
2022-07-25T12:05:53.702Z,5.80
2022-07-25T12:06:53.714Z,5.50
2022-07-25T12:07:53.704Z,6.30
2022-07-25T12:08:53.670Z,5.40
2022-07-25T12:09:53.737Z,6.30
2022-07-25T12:10:53.683Z,5.60
2022-07-25T12:11:53.640Z,5.10
2022-07-25T12:12:53.635Z,5.40
2022-07-25T12:13:53.674Z,5.60
2022-07-25T12:14:53.629Z,6.60
2022-07-25T12:15:53.627Z,5.20
2022-07-25T12:16:53.667Z,5.80
2022-07-25T12:17:53.601Z,5.30
2022-07-25T12:18:53.583Z,5.70
2022-07-25T12:19:53.611Z,5.70
2022-07-25T12:20:53.578Z,5.90
2022-07-25T12:21:53.664Z,5.80
2022-07-25T12:22:53.576Z,6.10
2022-07-25T12:23:53.559Z,5.90
2022-07-25T12:24:53.547Z,6.00
2022-07-25T12:25:53.559Z,5.80
2022-07-25T12:26:53.546Z,5.90
2022-07-25T12:27:53.545Z,5.70
2022-07-25T12:28:53.537Z,5.80
2022-07-25T12:29:53.515Z,6.10
2022-07-25T12:30:56.656Z,6.10
2022-07-25T12:31:53.522Z,5.90
2022-07-25T12:32:53.498Z,6.20
2022-07-25T12:33:53.485Z,5.90
2022-07-25T12:34:53.474Z,6.20
2022-07-25T12:35:53.479Z,6.20
2022-07-25T12:36:53.466Z,6.30
2022-07-25T12:37:53.477Z,6.30
2022-07-25T12:38:53.444Z,5.90
2022-07-25T12:39:53.469Z,5.90
2022-07-25T12:40:53.446Z,6.10
2022-07-25T12:41:53.434Z,5.60
2022-07-25T12:42:53.434Z,6.40
2022-07-25T12:43:53.439Z,5.90
2022-07-25T12:44:53.435Z,5.80
2022-07-25T12:45:53.523Z,5.90
2022-07-25T12:46:53.415Z,5.80
2022-07-25T12:47:53.384Z,6.10
2022-07-25T12:48:53.425Z,6.50
2022-07-25T12:49:53.424Z,6.00
2022-07-25T12:50:53.362Z,5.60
2022-07-25T12:51:57.918Z,5.80
2022-07-25T12:52:53.353Z,5.60
2022-07-25T12:53:53.338Z,5.90
2022-07-25T12:54:53.341Z,6.00
2022-07-25T12:55:53.331Z,6.10
2022-07-25T12:56:53.333Z,6.00
2022-07-25T12:57:53.332Z,6.30
2022-07-25T12:58:53.317Z,6.80
2022-07-25T12:59:53.308Z,7.30
2022-07-25T13:00:56.901Z,10.40
2022-07-25T13:01:54.449Z,7.70
2022-07-25T13:02:53.377Z,6.50
2022-07-25T13:03:53.281Z,6.50
2022-07-25T13:04:53.270Z,6.40
2022-07-25T13:05:53.254Z,6.40
2022-07-25T13:06:53.243Z,6.20
2022-07-25T13:07:53.262Z,6.50
2022-07-25T13:08:53.245Z,5.90
2022-07-25T13:09:53.284Z,5.90
2022-07-25T13:10:53.225Z,5.80
2022-07-25T13:11:53.204Z,7.60
2022-07-25T13:12:53.203Z,6.50
2022-07-25T13:13:53.187Z,6.50
2022-07-25T13:14:53.217Z,6.60
2022-07-25T13:15:53.236Z,6.30
2022-07-25T13:16:53.268Z,6.30
2022-07-25T13:17:53.191Z,6.50
2022-07-25T13:18:53.160Z,6.30
2022-07-25T13:19:53.153Z,6.10